sensor_id;sensor_type;location;lat;lon;timestamp;P1;durP1;ratioP1;P2;durP2;ratioP2
16254;SDS011;8235;52.198;9.904;2023-03-05T00:01:03;11.10;;;3.47;;
16254;SDS011;8235;52.198;9.904;2023-03-05T00:03:31;6.83;;;2.03;;
16254;SDS011;8235;52.198;9.904;2023-03-05T00:05:58;5.40;;;2.23;;
16254;SDS011;8235;52.198;9.904;2023-03-05T00:08:24;7.67;;;1.90;;
16254;SDS011;8235;52.198;9.904;2023-03-05T00:10:54;9.53;;;2.17;;
16254;SDS011;8235;52.198;9.904;2023-03-05T00:13:21;5.30;;;2.00;;
16254;SDS011;8235;52.198;9.904;2023-03-05T00:15:47;7.63;;;2.90;;
16254;SDS011;8235;52.198;9.904;2023-03-05T00:18:14;15.43;;;6.77;;
16254;SDS011;8235;52.198;9.904;2023-03-05T00:20:42;19.97;;;6.30;;
16254;SDS011;8235;52.198;9.904;2023-03-05T00:23:08;13.30;;;5.50;;
16254;SDS011;8235;52.198;9.904;2023-03-05T00:25:35;13.17;;;5.63;;
16254;SDS011;8235;52.198;9.904;2023-03-05T00:28:01;13.83;;;4.83;;
16254;SDS011;8235;52.198;9.904;2023-03-05T00:30:29;11.20;;;4.27;;
16254;SDS011;8235;52.198;9.904;2023-03-05T00:32:55;9.60;;;4.53;;
16254;SDS011;8235;52.198;9.904;2023-03-05T00:35:22;9.00;;;3.23;;
16254;SDS011;8235;52.198;9.904;2023-03-05T00:37:50;7.47;;;2.73;;
16254;SDS011;8235;52.198;9.904;2023-03-05T00:40:34;10.50;;;2.17;;
16254;SDS011;8235;52.198;9.904;2023-03-05T00:43:02;4.23;;;1.60;;
16254;SDS011;8235;52.198;9.904;2023-03-05T00:45:29;8.33;;;2.33;;
16254;SDS011;8235;52.198;9.904;2023-03-05T00:47:55;10.20;;;2.00;;
16254;SDS011;8235;52.198;9.904;2023-03-05T00:50:22;8.13;;;2.20;;
16254;SDS011;8235;52.198;9.904;2023-03-05T00:52:50;7.03;;;1.80;;
16254;SDS011;8235;52.198;9.904;2023-03-05T00:55:17;7.57;;;1.93;;
16254;SDS011;8235;52.198;9.904;2023-03-05T00:57:44;7.80;;;1.87;;
16254;SDS011;8235;52.198;9.904;2023-03-05T01:00:10;7.77;;;2.10;;
16254;SDS011;8235;52.198;9.904;2023-03-05T01:02:38;10.07;;;1.83;;
16254;SDS011;8235;52.198;9.904;2023-03-05T01:05:05;7.93;;;1.90;;
16254;SDS011;8235;52.198;9.904;2023-03-05T01:07:32;5.73;;;2.00;;
16254;SDS011;8235;52.198;9.904;2023-03-05T01:10:00;6.80;;;1.70;;
16254;SDS011;8235;52.198;9.904;2023-03-05T01:12:26;6.23;;;1.80;;
16254;SDS011;8235;52.198;9.904;2023-03-05T01:14:53;9.03;;;2.40;;
16254;SDS011;8235;52.198;9.904;2023-03-05T01:17:19;4.70;;;1.70;;
16254;SDS011;8235;52.198;9.904;2023-03-05T01:19:46;5.80;;;1.30;;
16254;SDS011;8235;52.198;9.904;2023-03-05T01:22:12;6.00;;;1.90;;
16254;SDS011;8235;52.198;9.904;2023-03-05T01:24:39;5.80;;;1.70;;
16254;SDS011;8235;52.198;9.904;2023-03-05T01:27:06;5.37;;;1.90;;
16254;SDS011;8235;52.198;9.904;2023-03-05T01:29:33;6.33;;;2.03;;
16254;SDS011;8235;52.198;9.904;2023-03-05T01:32:01;4.90;;;1.93;;
16254;SDS011;8235;52.198;9.904;2023-03-05T01:34:28;5.53;;;1.70;;
16254;SDS011;8235;52.198;9.904;2023-03-05T01:36:54;9.77;;;2.53;;
16254;SDS011;8235;52.198;9.904;2023-03-05T01:39:21;4.50;;;1.90;;
16254;SDS011;8235;52.198;9.904;2023-03-05T01:41:47;5.77;;;1.93;;
16254;SDS011;8235;52.198;9.904;2023-03-05T01:44:19;10.63;;;2.23;;
16254;SDS011;8235;52.198;9.904;2023-03-05T01:46:48;6.27;;;2.47;;
16254;SDS011;8235;52.198;9.904;2023-03-05T01:49:16;7.57;;;2.20;;
16254;SDS011;8235;52.198;9.904;2023-03-05T01:51:53;5.23;;;2.43;;
16254;SDS011;8235;52.198;9.904;2023-03-05T01:54:26;5.57;;;1.87;;
16254;SDS011;8235;52.198;9.904;2023-03-05T01:56:56;5.60;;;2.20;;
16254;SDS011;8235;52.198;9.904;2023-03-05T01:59:26;7.27;;;2.03;;
16254;SDS011;8235;52.198;9.904;2023-03-05T02:01:53;10.73;;;2.23;;
16254;SDS011;8235;52.198;9.904;2023-03-05T02:04:23;7.53;;;1.90;;
16254;SDS011;8235;52.198;9.904;2023-03-05T02:06:55;5.83;;;1.87;;
16254;SDS011;8235;52.198;9.904;2023-03-05T02:09:22;5.67;;;2.37;;
16254;SDS011;8235;52.198;9.904;2023-03-05T02:11:48;5.97;;;2.30;;
16254;SDS011;8235;52.198;9.904;2023-03-05T02:14:15;7.33;;;3.03;;
16254;SDS011;8235;52.198;9.904;2023-03-05T02:16:43;6.57;;;2.67;;
16254;SDS011;8235;52.198;9.904;2023-03-05T02:19:10;8.20;;;2.90;;
16254;SDS011;8235;52.198;9.904;2023-03-05T02:21:39;5.23;;;2.93;;
16254;SDS011;8235;52.198;9.904;2023-03-05T02:24:08;8.67;;;3.20;;
16254;SDS011;8235;52.198;9.904;2023-03-05T02:26:37;9.20;;;3.17;;
16254;SDS011;8235;52.198;9.904;2023-03-05T02:29:04;11.07;;;2.67;;
16254;SDS011;8235;52.198;9.904;2023-03-05T02:31:33;5.00;;;2.83;;
16254;SDS011;8235;52.198;9.904;2023-03-05T02:33:59;8.20;;;3.00;;
16254;SDS011;8235;52.198;9.904;2023-03-05T02:36:25;8.73;;;2.67;;
16254;SDS011;8235;52.198;9.904;2023-03-05T02:38:56;6.57;;;2.80;;
16254;SDS011;8235;52.198;9.904;2023-03-05T02:41:23;5.53;;;2.53;;
16254;SDS011;8235;52.198;9.904;2023-03-05T02:43:50;7.40;;;3.00;;
16254;SDS011;8235;52.198;9.904;2023-03-05T02:46:16;8.37;;;2.50;;
16254;SDS011;8235;52.198;9.904;2023-03-05T02:48:43;7.77;;;2.47;;
16254;SDS011;8235;52.198;9.904;2023-03-05T02:51:10;8.57;;;2.67;;
16254;SDS011;8235;52.198;9.904;2023-03-05T02:53:36;6.60;;;2.33;;
16254;SDS011;8235;52.198;9.904;2023-03-05T02:56:04;7.93;;;4.00;;
16254;SDS011;8235;52.198;9.904;2023-03-05T02:58:31;10.27;;;3.17;;
16254;SDS011;8235;52.198;9.904;2023-03-05T03:00:58;8.67;;;3.40;;
16254;SDS011;8235;52.198;9.904;2023-03-05T03:03:24;10.40;;;3.37;;
16254;SDS011;8235;52.198;9.904;2023-03-05T03:05:50;12.40;;;4.80;;
16254;SDS011;8235;52.198;9.904;2023-03-05T03:08:17;7.47;;;2.90;;
16254;SDS011;8235;52.198;9.904;2023-03-05T03:10:44;13.90;;;4.30;;
16254;SDS011;8235;52.198;9.904;2023-03-05T03:13:11;10.13;;;3.53;;
16254;SDS011;8235;52.198;9.904;2023-03-05T03:15:38;12.47;;;3.23;;
16254;SDS011;8235;52.198;9.904;2023-03-05T03:18:05;13.83;;;4.50;;
16254;SDS011;8235;52.198;9.904;2023-03-05T03:20:31;8.03;;;2.87;;
16254;SDS011;8235;52.198;9.904;2023-03-05T03:22:59;9.03;;;3.70;;
16254;SDS011;8235;52.198;9.904;2023-03-05T03:25:26;10.27;;;4.03;;
16254;SDS011;8235;52.198;9.904;2023-03-05T03:27:52;12.60;;;3.50;;
16254;SDS011;8235;52.198;9.904;2023-03-05T03:30:20;9.07;;;3.60;;
16254;SDS011;8235;52.198;9.904;2023-03-05T03:32:47;8.93;;;3.40;;
16254;SDS011;8235;52.198;9.904;2023-03-05T03:35:13;6.67;;;2.90;;
16254;SDS011;8235;52.198;9.904;2023-03-05T03:37:40;8.10;;;3.00;;
16254;SDS011;8235;52.198;9.904;2023-03-05T03:40:06;10.97;;;4.00;;
16254;SDS011;8235;52.198;9.904;2023-03-05T03:42:34;5.27;;;2.17;;
16254;SDS011;8235;52.198;9.904;2023-03-05T03:45:01;5.83;;;2.10;;
16254;SDS011;8235;52.198;9.904;2023-03-05T03:47:29;5.87;;;2.10;;
16254;SDS011;8235;52.198;9.904;2023-03-05T03:49:56;7.03;;;2.50;;
16254;SDS011;8235;52.198;9.904;2023-03-05T03:52:23;3.60;;;2.60;;
16254;SDS011;8235;52.198;9.904;2023-03-05T03:54:50;5.77;;;2.77;;
16254;SDS011;8235;52.198;9.904;2023-03-05T03:57:17;5.37;;;2.47;;
16254;SDS011;8235;52.198;9.904;2023-03-05T03:59:44;4.83;;;2.40;;
16254;SDS011;8235;52.198;9.904;2023-03-05T04:02:10;8.27;;;2.57;;
16254;SDS011;8235;52.198;9.904;2023-03-05T04:04:38;5.90;;;2.50;;
16254;SDS011;8235;52.198;9.904;2023-03-05T04:07:05;6.83;;;2.63;;
16254;SDS011;8235;52.198;9.904;2023-03-05T04:09:31;6.07;;;2.80;;
16254;SDS011;8235;52.198;9.904;2023-03-05T04:11:58;7.57;;;2.40;;
16254;SDS011;8235;52.198;9.904;2023-03-05T04:14:24;6.37;;;2.30;;
16254;SDS011;8235;52.198;9.904;2023-03-05T04:16:51;6.60;;;2.47;;
16254;SDS011;8235;52.198;9.904;2023-03-05T04:19:17;4.50;;;2.20;;
16254;SDS011;8235;52.198;9.904;2023-03-05T04:21:45;6.87;;;2.33;;
16254;SDS011;8235;52.198;9.904;2023-03-05T04:24:12;6.23;;;2.40;;
16254;SDS011;8235;52.198;9.904;2023-03-05T04:26:38;5.93;;;2.30;;
16254;SDS011;8235;52.198;9.904;2023-03-05T04:29:04;8.23;;;3.27;;
16254;SDS011;8235;52.198;9.904;2023-03-05T04:31:31;3.27;;;1.90;;
16254;SDS011;8235;52.198;9.904;2023-03-05T04:33:58;8.70;;;2.20;;
16254;SDS011;8235;52.198;9.904;2023-03-05T04:36:24;6.03;;;2.30;;
16254;SDS011;8235;52.198;9.904;2023-03-05T04:38:52;7.73;;;2.47;;
16254;SDS011;8235;52.198;9.904;2023-03-05T04:41:18;6.37;;;1.87;;
16254;SDS011;8235;52.198;9.904;2023-03-05T04:43:45;6.07;;;2.00;;
16254;SDS011;8235;52.198;9.904;2023-03-05T04:46:11;4.53;;;2.00;;
16254;SDS011;8235;52.198;9.904;2023-03-05T04:48:38;4.30;;;1.93;;
16254;SDS011;8235;52.198;9.904;2023-03-05T04:51:05;4.73;;;2.20;;
16254;SDS011;8235;52.198;9.904;2023-03-05T04:53:32;5.37;;;2.90;;
16254;SDS011;8235;52.198;9.904;2023-03-05T04:56:00;4.23;;;2.23;;
16254;SDS011;8235;52.198;9.904;2023-03-05T04:58:27;4.77;;;2.00;;
16254;SDS011;8235;52.198;9.904;2023-03-05T05:00:56;6.97;;;2.00;;
16254;SDS011;8235;52.198;9.904;2023-03-05T05:03:26;4.87;;;1.97;;
16254;SDS011;8235;52.198;9.904;2023-03-05T05:05:53;5.97;;;2.23;;
16254;SDS011;8235;52.198;9.904;2023-03-05T05:08:20;5.83;;;2.00;;
16254;SDS011;8235;52.198;9.904;2023-03-05T05:10:53;5.43;;;2.30;;
16254;SDS011;8235;52.198;9.904;2023-03-05T05:13:22;4.47;;;2.07;;
16254;SDS011;8235;52.198;9.904;2023-03-05T05:15:48;8.93;;;2.60;;
16254;SDS011;8235;52.198;9.904;2023-03-05T05:18:15;6.53;;;2.50;;
16254;SDS011;8235;52.198;9.904;2023-03-05T05:20:41;8.77;;;2.70;;
16254;SDS011;8235;52.198;9.904;2023-03-05T05:23:08;4.47;;;2.10;;
16254;SDS011;8235;52.198;9.904;2023-03-05T05:25:34;4.67;;;2.60;;
16254;SDS011;8235;52.198;9.904;2023-03-05T05:28:01;7.73;;;2.47;;
16254;SDS011;8235;52.198;9.904;2023-03-05T05:30:28;6.87;;;2.53;;
16254;SDS011;8235;52.198;9.904;2023-03-05T05:32:55;5.77;;;2.90;;
16254;SDS011;8235;52.198;9.904;2023-03-05T05:35:22;5.13;;;2.40;;
16254;SDS011;8235;52.198;9.904;2023-03-05T05:37:48;5.50;;;2.20;;
16254;SDS011;8235;52.198;9.904;2023-03-05T05:40:15;4.30;;;1.83;;
16254;SDS011;8235;52.198;9.904;2023-03-05T05:42:42;5.37;;;2.00;;
16254;SDS011;8235;52.198;9.904;2023-03-05T05:45:09;3.83;;;2.23;;
16254;SDS011;8235;52.198;9.904;2023-03-05T05:47:37;5.40;;;2.20;;
16254;SDS011;8235;52.198;9.904;2023-03-05T05:50:04;6.07;;;2.40;;
16254;SDS011;8235;52.198;9.904;2023-03-05T05:52:31;6.10;;;2.83;;
16254;SDS011;8235;52.198;9.904;2023-03-05T05:54:58;2.87;;;2.10;;
16254;SDS011;8235;52.198;9.904;2023-03-05T05:57:24;7.17;;;2.80;;
16254;SDS011;8235;52.198;9.904;2023-03-05T05:59:51;3.00;;;1.77;;
16254;SDS011;8235;52.198;9.904;2023-03-05T06:02:17;6.07;;;2.37;;
16254;SDS011;8235;52.198;9.904;2023-03-05T06:04:45;5.27;;;1.80;;
16254;SDS011;8235;52.198;9.904;2023-03-05T06:07:12;3.73;;;1.80;;
16254;SDS011;8235;52.198;9.904;2023-03-05T06:09:38;5.67;;;2.30;;
16254;SDS011;8235;52.198;9.904;2023-03-05T06:12:05;4.40;;;2.10;;
16254;SDS011;8235;52.198;9.904;2023-03-05T06:14:32;4.57;;;1.90;;
16254;SDS011;8235;52.198;9.904;2023-03-05T06:16:59;3.63;;;2.10;;
16254;SDS011;8235;52.198;9.904;2023-03-05T06:19:25;5.07;;;1.70;;
16254;SDS011;8235;52.198;9.904;2023-03-05T06:21:53;8.10;;;2.13;;
16254;SDS011;8235;52.198;9.904;2023-03-05T06:24:20;5.87;;;1.80;;
16254;SDS011;8235;52.198;9.904;2023-03-05T06:26:47;6.50;;;2.20;;
16254;SDS011;8235;52.198;9.904;2023-03-05T06:29:13;3.77;;;1.60;;
16254;SDS011;8235;52.198;9.904;2023-03-05T06:31:40;6.67;;;1.90;;
16254;SDS011;8235;52.198;9.904;2023-03-05T06:34:06;4.13;;;1.67;;
16254;SDS011;8235;52.198;9.904;2023-03-05T06:36:33;5.87;;;2.57;;
16254;SDS011;8235;52.198;9.904;2023-03-05T06:39:01;4.70;;;2.10;;
16254;SDS011;8235;52.198;9.904;2023-03-05T06:41:28;6.00;;;2.23;;
16254;SDS011;8235;52.198;9.904;2023-03-05T06:43:56;5.60;;;1.50;;
16254;SDS011;8235;52.198;9.904;2023-03-05T06:46:25;4.43;;;1.77;;
16254;SDS011;8235;52.198;9.904;2023-03-05T06:48:54;5.10;;;2.27;;
16254;SDS011;8235;52.198;9.904;2023-03-05T06:51:22;5.57;;;2.47;;
16254;SDS011;8235;52.198;9.904;2023-03-05T06:53:50;6.33;;;2.47;;
16254;SDS011;8235;52.198;9.904;2023-03-05T06:56:18;6.43;;;2.23;;
16254;SDS011;8235;52.198;9.904;2023-03-05T06:58:46;5.13;;;2.20;;
16254;SDS011;8235;52.198;9.904;2023-03-05T07:01:14;4.10;;;2.23;;
16254;SDS011;8235;52.198;9.904;2023-03-05T07:03:41;5.77;;;2.70;;
16254;SDS011;8235;52.198;9.904;2023-03-05T07:06:09;6.87;;;3.20;;
16254;SDS011;8235;52.198;9.904;2023-03-05T07:08:37;4.87;;;2.70;;
16254;SDS011;8235;52.198;9.904;2023-03-05T07:11:08;7.87;;;3.00;;
16254;SDS011;8235;52.198;9.904;2023-03-05T07:13:36;4.30;;;2.83;;
16254;SDS011;8235;52.198;9.904;2023-03-05T07:16:03;4.17;;;2.93;;
16254;SDS011;8235;52.198;9.904;2023-03-05T07:18:31;8.33;;;4.40;;
16254;SDS011;8235;52.198;9.904;2023-03-05T07:21:00;10.47;;;5.27;;
16254;SDS011;8235;52.198;9.904;2023-03-05T07:23:27;9.67;;;3.83;;
16254;SDS011;8235;52.198;9.904;2023-03-05T07:25:54;6.90;;;4.40;;
16254;SDS011;8235;52.198;9.904;2023-03-05T07:28:20;9.63;;;4.60;;
16254;SDS011;8235;52.198;9.904;2023-03-05T07:30:54;7.67;;;3.80;;
16254;SDS011;8235;52.198;9.904;2023-03-05T07:33:21;10.73;;;6.30;;
16254;SDS011;8235;52.198;9.904;2023-03-05T07:35:48;6.27;;;3.80;;
16254;SDS011;8235;52.198;9.904;2023-03-05T07:38:14;9.53;;;5.70;;
16254;SDS011;8235;52.198;9.904;2023-03-05T07:40:40;10.03;;;5.53;;
16254;SDS011;8235;52.198;9.904;2023-03-05T07:43:07;6.43;;;3.83;;
16254;SDS011;8235;52.198;9.904;2023-03-05T07:45:33;6.70;;;3.57;;
16254;SDS011;8235;52.198;9.904;2023-03-05T07:48:01;6.13;;;3.43;;
16254;SDS011;8235;52.198;9.904;2023-03-05T07:50:28;8.53;;;2.80;;
16254;SDS011;8235;52.198;9.904;2023-03-05T07:52:54;8.87;;;2.97;;
16254;SDS011;8235;52.198;9.904;2023-03-05T07:55:21;5.87;;;2.70;;
16254;SDS011;8235;52.198;9.904;2023-03-05T07:57:47;7.50;;;3.03;;
16254;SDS011;8235;52.198;9.904;2023-03-05T08:00:14;4.37;;;2.57;;
16254;SDS011;8235;52.198;9.904;2023-03-05T08:02:41;3.07;;;2.00;;
16254;SDS011;8235;52.198;9.904;2023-03-05T08:05:08;5.53;;;1.80;;
16254;SDS011;8235;52.198;9.904;2023-03-05T08:07:35;2.53;;;1.60;;
16254;SDS011;8235;52.198;9.904;2023-03-05T08:10:02;4.03;;;1.87;;
16254;SDS011;8235;52.198;9.904;2023-03-05T08:12:29;3.23;;;1.30;;
16254;SDS011;8235;52.198;9.904;2023-03-05T08:14:55;2.47;;;1.17;;
16254;SDS011;8235;52.198;9.904;2023-03-05T08:17:22;3.67;;;1.57;;
16254;SDS011;8235;52.198;9.904;2023-03-05T08:19:49;3.13;;;1.37;;
16254;SDS011;8235;52.198;9.904;2023-03-05T08:22:16;1.97;;;1.20;;
16254;SDS011;8235;52.198;9.904;2023-03-05T08:24:44;1.77;;;1.00;;
16254;SDS011;8235;52.198;9.904;2023-03-05T08:27:11;2.97;;;1.50;;
16254;SDS011;8235;52.198;9.904;2023-03-05T08:29:37;4.07;;;1.37;;
16254;SDS011;8235;52.198;9.904;2023-03-05T08:32:04;2.87;;;1.40;;
16254;SDS011;8235;52.198;9.904;2023-03-05T08:34:30;2.40;;;1.20;;
16254;SDS011;8235;52.198;9.904;2023-03-05T08:36:57;2.70;;;1.23;;
16254;SDS011;8235;52.198;9.904;2023-03-05T08:39:25;1.67;;;1.23;;
16254;SDS011;8235;52.198;9.904;2023-03-05T08:41:51;4.30;;;1.40;;
16254;SDS011;8235;52.198;9.904;2023-03-05T08:44:18;2.63;;;1.13;;
16254;SDS011;8235;52.198;9.904;2023-03-05T08:46:44;3.37;;;1.27;;
16254;SDS011;8235;52.198;9.904;2023-03-05T08:49:11;4.83;;;1.57;;
16254;SDS011;8235;52.198;9.904;2023-03-05T08:51:37;4.87;;;1.43;;
16254;SDS011;8235;52.198;9.904;2023-03-05T08:54:04;1.20;;;1.10;;
16254;SDS011;8235;52.198;9.904;2023-03-05T08:56:33;4.13;;;1.40;;
16254;SDS011;8235;52.198;9.904;2023-03-05T08:59:00;2.93;;;1.40;;
16254;SDS011;8235;52.198;9.904;2023-03-05T09:01:27;5.10;;;2.03;;
16254;SDS011;8235;52.198;9.904;2023-03-05T09:03:54;4.53;;;1.80;;
16254;SDS011;8235;52.198;9.904;2023-03-05T09:06:21;2.67;;;1.33;;
16254;SDS011;8235;52.198;9.904;2023-03-05T09:08:47;1.77;;;1.20;;
16254;SDS011;8235;52.198;9.904;2023-03-05T09:11:14;4.67;;;1.47;;
16254;SDS011;8235;52.198;9.904;2023-03-05T09:13:42;3.03;;;1.20;;
16254;SDS011;8235;52.198;9.904;2023-03-05T09:16:10;2.87;;;1.53;;
16254;SDS011;8235;52.198;9.904;2023-03-05T09:18:38;2.87;;;1.30;;
16254;SDS011;8235;52.198;9.904;2023-03-05T09:21:05;2.80;;;1.30;;
16254;SDS011;8235;52.198;9.904;2023-03-05T09:23:33;3.37;;;1.10;;
16254;SDS011;8235;52.198;9.904;2023-03-05T09:25:59;3.43;;;1.20;;
16254;SDS011;8235;52.198;9.904;2023-03-05T09:28:26;2.90;;;1.50;;
16254;SDS011;8235;52.198;9.904;2023-03-05T09:30:54;3.13;;;1.30;;
16254;SDS011;8235;52.198;9.904;2023-03-05T09:33:20;2.50;;;1.07;;
16254;SDS011;8235;52.198;9.904;2023-03-05T09:35:47;3.50;;;1.83;;
16254;SDS011;8235;52.198;9.904;2023-03-05T09:38:13;1.63;;;1.53;;
16254;SDS011;8235;52.198;9.904;2023-03-05T09:40:41;3.00;;;1.20;;
16254;SDS011;8235;52.198;9.904;2023-03-05T09:43:15;2.77;;;1.47;;
16254;SDS011;8235;52.198;9.904;2023-03-05T09:45:57;1.70;;;1.17;;
16254;SDS011;8235;52.198;9.904;2023-03-05T09:48:40;2.13;;;1.13;;
16254;SDS011;8235;52.198;9.904;2023-03-05T09:51:15;3.03;;;1.27;;
16254;SDS011;8235;52.198;9.904;2023-03-05T09:53:47;1.87;;;1.00;;
16254;SDS011;8235;52.198;9.904;2023-03-05T09:56:20;2.80;;;1.30;;
16254;SDS011;8235;52.198;9.904;2023-03-05T09:58:49;3.10;;;1.40;;
16254;SDS011;8235;52.198;9.904;2023-03-05T10:01:20;6.03;;;2.50;;
16254;SDS011;8235;52.198;9.904;2023-03-05T10:03:52;5.23;;;1.90;;
16254;SDS011;8235;52.198;9.904;2023-03-05T10:06:22;5.10;;;1.50;;
16254;SDS011;8235;52.198;9.904;2023-03-05T10:08:52;3.27;;;1.67;;
16254;SDS011;8235;52.198;9.904;2023-03-05T10:11:35;6.13;;;1.60;;
16254;SDS011;8235;52.198;9.904;2023-03-05T10:14:10;8.30;;;3.00;;
16254;SDS011;8235;52.198;9.904;2023-03-05T10:16:51;4.27;;;1.73;;
16254;SDS011;8235;52.198;9.904;2023-03-05T10:19:34;2.47;;;1.63;;
16254;SDS011;8235;52.198;9.904;2023-03-05T10:22:13;4.03;;;1.63;;
16254;SDS011;8235;52.198;9.904;2023-03-05T10:24:48;3.63;;;1.17;;
16254;SDS011;8235;52.198;9.904;2023-03-05T10:27:30;2.80;;;1.73;;
16254;SDS011;8235;52.198;9.904;2023-03-05T10:30:03;2.97;;;1.40;;
16254;SDS011;8235;52.198;9.904;2023-03-05T10:32:46;5.13;;;2.17;;
16254;SDS011;8235;52.198;9.904;2023-03-05T10:35:22;3.10;;;1.70;;
16254;SDS011;8235;52.198;9.904;2023-03-05T10:41:05;5.43;;;1.70;;
16254;SDS011;8235;52.198;9.904;2023-03-05T10:43:38;3.70;;;1.13;;
16254;SDS011;8235;52.198;9.904;2023-03-05T10:46:14;2.77;;;1.30;;
16254;SDS011;8235;52.198;9.904;2023-03-05T10:48:45;3.90;;;1.13;;
16254;SDS011;8235;52.198;9.904;2023-03-05T10:51:18;2.00;;;1.17;;
16254;SDS011;8235;52.198;9.904;2023-03-05T10:53:51;4.17;;;1.40;;
16254;SDS011;8235;52.198;9.904;2023-03-05T10:56:21;3.23;;;1.20;;
16254;SDS011;8235;52.198;9.904;2023-03-05T10:58:49;3.83;;;1.50;;
16254;SDS011;8235;52.198;9.904;2023-03-05T11:01:21;2.60;;;1.47;;
16254;SDS011;8235;52.198;9.904;2023-03-05T11:03:51;4.70;;;1.40;;
16254;SDS011;8235;52.198;9.904;2023-03-05T11:06:27;2.47;;;1.03;;
16254;SDS011;8235;52.198;9.904;2023-03-05T11:08:58;2.73;;;1.13;;
16254;SDS011;8235;52.198;9.904;2023-03-05T11:11:41;2.37;;;1.50;;
16254;SDS011;8235;52.198;9.904;2023-03-05T11:14:21;2.97;;;1.70;;
16254;SDS011;8235;52.198;9.904;2023-03-05T11:16:54;4.90;;;1.40;;
16254;SDS011;8235;52.198;9.904;2023-03-05T11:19:24;3.70;;;1.60;;
16254;SDS011;8235;52.198;9.904;2023-03-05T11:22:05;2.30;;;1.30;;
16254;SDS011;8235;52.198;9.904;2023-03-05T11:24:38;2.10;;;1.30;;
16254;SDS011;8235;52.198;9.904;2023-03-05T11:27:20;3.00;;;1.53;;
16254;SDS011;8235;52.198;9.904;2023-03-05T11:29:48;5.00;;;1.50;;
16254;SDS011;8235;52.198;9.904;2023-03-05T11:32:16;7.77;;;1.73;;
16254;SDS011;8235;52.198;9.904;2023-03-05T11:34:48;4.27;;;1.97;;
16254;SDS011;8235;52.198;9.904;2023-03-05T11:37:20;3.87;;;1.50;;
16254;SDS011;8235;52.198;9.904;2023-03-05T11:39:52;3.43;;;1.43;;
16254;SDS011;8235;52.198;9.904;2023-03-05T11:42:39;5.57;;;1.30;;
16254;SDS011;8235;52.198;9.904;2023-03-05T11:45:08;3.30;;;1.50;;
16254;SDS011;8235;52.198;9.904;2023-03-05T11:47:41;3.10;;;1.57;;
16254;SDS011;8235;52.198;9.904;2023-03-05T11:50:15;2.43;;;1.10;;
16254;SDS011;8235;52.198;9.904;2023-03-05T11:52:46;3.90;;;1.40;;
16254;SDS011;8235;52.198;9.904;2023-03-05T11:55:14;4.70;;;1.50;;
16254;SDS011;8235;52.198;9.904;2023-03-05T11:57:45;4.10;;;1.60;;
16254;SDS011;8235;52.198;9.904;2023-03-05T12:00:16;3.67;;;1.70;;
16254;SDS011;8235;52.198;9.904;2023-03-05T12:02:46;10.63;;;4.47;;
16254;SDS011;8235;52.198;9.904;2023-03-05T12:05:19;6.47;;;1.90;;
16254;SDS011;8235;52.198;9.904;2023-03-05T12:07:46;20.40;;;9.73;;
16254;SDS011;8235;52.198;9.904;2023-03-05T12:10:15;4.37;;;2.50;;
16254;SDS011;8235;52.198;9.904;2023-03-05T12:12:46;8.53;;;4.70;;
16254;SDS011;8235;52.198;9.904;2023-03-05T12:15:23;2.03;;;1.50;;
16254;SDS011;8235;52.198;9.904;2023-03-05T12:18:01;2.80;;;1.60;;
16254;SDS011;8235;52.198;9.904;2023-03-05T12:20:36;1.37;;;0.90;;
16254;SDS011;8235;52.198;9.904;2023-03-05T12:23:12;2.83;;;1.50;;
16254;SDS011;8235;52.198;9.904;2023-03-05T12:25:44;3.53;;;1.10;;
16254;SDS011;8235;52.198;9.904;2023-03-05T12:28:13;1.90;;;0.87;;
16254;SDS011;8235;52.198;9.904;2023-03-05T12:30:55;11.77;;;3.97;;
16254;SDS011;8235;52.198;9.904;2023-03-05T12:33:30;3.13;;;1.47;;
16254;SDS011;8235;52.198;9.904;2023-03-05T12:39:00;3.53;;;1.03;;
16254;SDS011;8235;52.198;9.904;2023-03-05T12:49:44;2.53;;;0.90;;
16254;SDS011;8235;52.198;9.904;2023-03-05T12:52:17;3.33;;;1.00;;
16254;SDS011;8235;52.198;9.904;2023-03-05T12:54:55;2.80;;;0.93;;
16254;SDS011;8235;52.198;9.904;2023-03-05T12:57:26;2.53;;;0.90;;
16254;SDS011;8235;52.198;9.904;2023-03-05T12:59:57;2.73;;;1.03;;
16254;SDS011;8235;52.198;9.904;2023-03-05T13:02:31;3.23;;;1.80;;
16254;SDS011;8235;52.198;9.904;2023-03-05T13:05:02;1.83;;;1.40;;
16254;SDS011;8235;52.198;9.904;2023-03-05T13:07:41;3.70;;;1.27;;
16254;SDS011;8235;52.198;9.904;2023-03-05T13:10:19;3.70;;;1.03;;
16254;SDS011;8235;52.198;9.904;2023-03-05T13:12:48;2.03;;;1.40;;
16254;SDS011;8235;52.198;9.904;2023-03-05T13:15:17;1.37;;;0.90;;
16254;SDS011;8235;52.198;9.904;2023-03-05T13:17:49;1.17;;;0.60;;
16254;SDS011;8235;52.198;9.904;2023-03-05T13:20:25;0.90;;;0.60;;
16254;SDS011;8235;52.198;9.904;2023-03-05T13:23:14;3.60;;;1.00;;
16254;SDS011;8235;52.198;9.904;2023-03-05T13:25:56;3.03;;;0.60;;
16254;SDS011;8235;52.198;9.904;2023-03-05T13:28:28;1.83;;;0.90;;
16254;SDS011;8235;52.198;9.904;2023-03-05T13:30:56;2.63;;;1.00;;
16254;SDS011;8235;52.198;9.904;2023-03-05T13:33:24;2.97;;;1.20;;
16254;SDS011;8235;52.198;9.904;2023-03-05T13:35:53;4.07;;;2.63;;
16254;SDS011;8235;52.198;9.904;2023-03-05T13:38:23;2.80;;;1.20;;
16254;SDS011;8235;52.198;9.904;2023-03-05T13:41:02;4.60;;;1.00;;
16254;SDS011;8235;52.198;9.904;2023-03-05T13:43:33;4.67;;;3.80;;
16254;SDS011;8235;52.198;9.904;2023-03-05T13:46:07;4.97;;;3.33;;
16254;SDS011;8235;52.198;9.904;2023-03-05T13:48:34;2.30;;;0.97;;
16254;SDS011;8235;52.198;9.904;2023-03-05T13:51:01;1.33;;;0.70;;
16254;SDS011;8235;52.198;9.904;2023-03-05T13:53:32;3.77;;;0.70;;
16254;SDS011;8235;52.198;9.904;2023-03-05T13:56:00;1.93;;;0.63;;
16254;SDS011;8235;52.198;9.904;2023-03-05T13:58:41;1.63;;;0.70;;
16254;SDS011;8235;52.198;9.904;2023-03-05T14:01:13;1.30;;;0.97;;
16254;SDS011;8235;52.198;9.904;2023-03-05T14:03:44;3.00;;;0.63;;
16254;SDS011;8235;52.198;9.904;2023-03-05T14:06:14;2.40;;;0.57;;
16254;SDS011;8235;52.198;9.904;2023-03-05T14:08:48;1.60;;;0.63;;
16254;SDS011;8235;52.198;9.904;2023-03-05T14:11:17;3.57;;;1.33;;
16254;SDS011;8235;52.198;9.904;2023-03-05T14:13:45;1.73;;;0.70;;
16254;SDS011;8235;52.198;9.904;2023-03-05T14:16:14;4.10;;;1.23;;
16254;SDS011;8235;52.198;9.904;2023-03-05T14:18:51;3.23;;;1.20;;
16254;SDS011;8235;52.198;9.904;2023-03-05T14:21:19;1.67;;;0.67;;
16254;SDS011;8235;52.198;9.904;2023-03-05T14:23:46;1.47;;;0.70;;
16254;SDS011;8235;52.198;9.904;2023-03-05T14:26:22;2.00;;;0.90;;
16254;SDS011;8235;52.198;9.904;2023-03-05T14:28:52;4.47;;;0.80;;
16254;SDS011;8235;52.198;9.904;2023-03-05T14:31:20;1.57;;;0.50;;
16254;SDS011;8235;52.198;9.904;2023-03-05T14:33:48;1.80;;;0.60;;
16254;SDS011;8235;52.198;9.904;2023-03-05T14:36:20;2.90;;;1.20;;
16254;SDS011;8235;52.198;9.904;2023-03-05T14:38:49;1.20;;;1.00;;
16254;SDS011;8235;52.198;9.904;2023-03-05T14:41:18;2.57;;;0.80;;
16254;SDS011;8235;52.198;9.904;2023-03-05T14:43:57;1.53;;;1.23;;
16254;SDS011;8235;52.198;9.904;2023-03-05T14:46:23;3.30;;;1.50;;
16254;SDS011;8235;52.198;9.904;2023-03-05T14:48:50;2.90;;;0.93;;
16254;SDS011;8235;52.198;9.904;2023-03-05T14:51:16;1.83;;;0.70;;
16254;SDS011;8235;52.198;9.904;2023-03-05T14:53:44;0.70;;;0.70;;
16254;SDS011;8235;52.198;9.904;2023-03-05T14:56:15;2.33;;;1.13;;
16254;SDS011;8235;52.198;9.904;2023-03-05T14:58:45;1.00;;;0.80;;
16254;SDS011;8235;52.198;9.904;2023-03-05T15:01:11;1.67;;;0.60;;
16254;SDS011;8235;52.198;9.904;2023-03-05T15:03:37;2.27;;;0.97;;
16254;SDS011;8235;52.198;9.904;2023-03-05T15:06:05;2.57;;;0.67;;
16254;SDS011;8235;52.198;9.904;2023-03-05T15:08:33;1.70;;;1.00;;
16254;SDS011;8235;52.198;9.904;2023-03-05T15:10:59;3.53;;;1.43;;
16254;SDS011;8235;52.198;9.904;2023-03-05T15:13:27;1.63;;;1.00;;
16254;SDS011;8235;52.198;9.904;2023-03-05T15:15:55;3.83;;;2.60;;
16254;SDS011;8235;52.198;9.904;2023-03-05T15:18:21;2.53;;;1.50;;
16254;SDS011;8235;52.198;9.904;2023-03-05T15:20:48;2.30;;;1.00;;
16254;SDS011;8235;52.198;9.904;2023-03-05T15:23:17;4.33;;;1.30;;
16254;SDS011;8235;52.198;9.904;2023-03-05T15:25:44;2.60;;;1.03;;